createdAt,value
2019-01-30T00:11:04.983Z,80.3
2019-01-30T00:26:15.357Z,81.1
2019-01-30T00:41:30.636Z,80.3
2019-01-30T00:56:36.133Z,80.7
2019-01-30T01:11:46.286Z,80.2
2019-01-30T01:26:56.625Z,80.7
2019-01-30T01:42:06.841Z,82.2
2019-01-30T01:57:13.851Z,82
2019-01-30T02:12:31.534Z,81.7
2019-01-30T02:27:38.943Z,81.8
2019-01-30T02:42:48.086Z,79.9
2019-01-30T02:57:50.195Z,79.8
2019-01-30T03:13:08.652Z,79.3
2019-01-30T03:28:19.103Z,80
2019-01-30T03:43:29.215Z,78.7
2019-01-30T03:58:39.492Z,78.7
2019-01-30T04:13:49.747Z,75.6
2019-01-30T04:28:59.986Z,75.2
2019-01-30T04:44:10.200Z,74.6
2019-01-30T04:59:20.453Z,74.5
2019-01-30T05:14:27.846Z,71.9
2019-01-30T05:29:40.842Z,72.5
2019-01-30T05:44:51.099Z,71.2
2019-01-30T06:00:01.670Z,69.6
2019-01-30T06:15:03.846Z,68.8
2019-01-30T06:30:21.809Z,68.2
2019-01-30T06:45:32.013Z,67.9
2019-01-30T07:00:42.154Z,66.9
2019-01-30T07:15:52.354Z,66.5
2019-01-30T07:31:02.677Z,63.6
2019-01-30T07:46:12.985Z,63.3
2019-01-30T08:01:23.674Z,62
2019-01-30T08:16:33.805Z,57.5
2019-01-30T08:31:42.878Z,54.5
2019-01-30T08:46:54.914Z,54.6
2019-01-30T09:02:05.719Z,55.2
2019-01-30T09:17:16.564Z,53.1
2019-01-30T09:32:21.273Z,52.2
2019-01-30T09:47:38.675Z,53
2019-01-30T10:02:50.097Z,50
2019-01-30T10:18:01.401Z,48.1
2019-01-30T10:33:13.186Z,43.8
2019-01-30T10:48:26.077Z,40.5
2019-01-30T11:03:39.146Z,36.3
2019-01-30T11:18:53.061Z,32.3
2019-01-30T11:34:08.118Z,33.7
2019-01-30T11:49:19.447Z,33.8
2019-01-30T12:04:32.265Z,33.3
2019-01-30T12:19:45.484Z,33.1
2019-01-30T12:34:58.448Z,32.7
2019-01-30T12:50:12.167Z,29.6
2019-01-30T13:05:13.957Z,28.4
2019-01-30T13:20:39.985Z,27.7
2019-01-30T13:35:55.656Z,26.9
2019-01-30T13:51:11.591Z,27.1
2019-01-30T14:06:23.657Z,33.1
2019-01-30T14:21:35.994Z,37.1
2019-01-30T14:36:47.931Z,37.6
2019-01-30T14:52:00.475Z,39.3
2019-01-30T15:07:12.895Z,39.8
2019-01-30T15:22:25.006Z,41.7
2019-01-30T15:37:28.283Z,45
2019-01-30T15:52:48.827Z,47.2
2019-01-30T16:08:00.235Z,49
2019-01-30T16:23:11.250Z,50.5
2019-01-30T16:38:22.580Z,51.8
2019-01-30T16:53:33.231Z,52.9
2019-01-30T17:08:45.036Z,52.5
2019-01-30T17:23:57.480Z,57.5
2019-01-30T17:39:09.710Z,53.1
2019-01-30T17:54:12.762Z,53.6
2019-01-30T18:09:34.716Z,53.8
2019-01-30T18:24:41.285Z,54.3
2019-01-30T18:39:52.826Z,54.5
2019-01-30T18:55:03.628Z,54.8
2019-01-30T19:10:14.804Z,54.6
2019-01-30T19:25:26.087Z,54.5
2019-01-30T19:40:37.207Z,54.9
2019-01-30T19:55:48.316Z,54.4
2019-01-30T20:10:56.255Z,54.4
2019-01-30T20:26:11.224Z,54.5
2019-01-30T20:41:21.838Z,54.1
2019-01-30T20:56:33.245Z,55
2019-01-30T21:11:35.302Z,53.5
2019-01-30T21:26:55.933Z,55
2019-01-30T21:42:07.065Z,55.1
2019-01-30T21:57:18.129Z,56.4
2019-01-30T22:12:29.189Z,55.8
2019-01-30T22:27:39.599Z,54.6
2019-01-30T22:42:51.903Z,55.6
2019-01-30T22:58:02.524Z,55.7
2019-01-30T23:13:13.581Z,56.2
2019-01-30T23:28:18.159Z,56
2019-01-30T23:43:35.780Z,56.6
2019-01-30T23:58:46.724Z,57.6
